Time;durP1;ratioP1;P1;durP2;ratioP2;P2;SDS_P1;SDS_P2;PMS_P1;PMS_P2;Temp;Humidity;BMP_temperature;BMP_pressure;BME280_temperature;BME280_humidity;BME280_pressure;Samples;Min_cycle;Max_cycle;Signal;HPM_P1;HPM_P2
2023/07/30 00:01:42;;;;;;;10.07;2.17;;;16.50;99.90;;;;;;5042394;28;20498;-34
2023/07/30 00:04:08;;;;;;;5.28;1.60;;;16.50;99.90;;;;;;5042940;28;20516;-34
2023/07/30 00:06:34;;;;;;;6.57;1.60;;;16.50;99.90;;;;;;5047334;28;20044;-33
2023/07/30 00:09:00;;;;;;;6.35;1.75;;;16.40;99.90;;;;;;5028727;28;20041;-34
2023/07/30 00:11:25;;;;;;;6.70;1.83;;;16.40;99.90;;;;;;5043555;28;20045;-34
2023/07/30 00:13:51;;;;;;;7.70;2.03;;;16.30;99.90;;;;;;5047723;28;20056;-34
2023/07/30 00:16:16;;;;;;;6.43;1.73;;;16.30;99.90;;;;;;5045579;28;20052;-34
2023/07/30 00:18:42;;;;;;;8.68;2.08;;;16.20;99.90;;;;;;5028801;28;20057;-34
2023/07/30 00:21:08;;;;;;;8.80;2.10;;;16.20;99.90;;;;;;5036869;28;21704;-34
2023/07/30 00:23:33;;;;;;;7.88;1.70;;;16.20;99.90;;;;;;5049750;28;20130;-34
2023/07/30 00:25:59;;;;;;;7.28;1.58;;;16.20;99.90;;;;;;5040417;28;20577;-34
2023/07/30 00:28:25;;;;;;;5.63;2.13;;;16.10;99.90;;;;;;5038761;28;20143;-34
2023/07/30 00:30:50;;;;;;;6.45;2.00;;;16.10;99.90;;;;;;5039385;28;20146;-34
2023/07/30 00:33:16;;;;;;;6.10;1.80;;;16.10;99.90;;;;;;5037539;28;20076;-34
2023/07/30 00:35:42;;;;;;;6.88;2.50;;;16.00;99.90;;;;;;5045392;28;20049;-34
2023/07/30 00:38:07;;;;;;;7.90;1.98;;;16.00;99.90;;;;;;5045864;28;20090;-34
2023/07/30 00:40:38;;;;;;;7.18;2.38;;;16.00;99.90;;;;;;5046498;28;20044;-33
2023/07/30 00:43:04;;;;;;;6.05;1.95;;;16.00;99.90;;;;;;5047560;28;20481;-34
2023/07/30 00:45:30;;;;;;;7.95;2.50;;;15.90;99.90;;;;;;5040175;28;20136;-33
2023/07/30 00:47:56;;;;;;;7.57;1.95;;;15.90;99.90;;;;;;5047379;28;20512;-34
2023/07/30 00:50:22;;;;;;;8.00;1.65;;;15.80;99.90;;;;;;5043287;28;20129;-34
2023/07/30 00:52:49;;;;;;;6.00;1.50;;;15.80;99.90;;;;;;5047070;28;20072;-34
2023/07/30 00:55:15;;;;;;;5.90;1.65;;;15.80;99.90;;;;;;5041374;28;20512;-34
2023/07/30 00:57:42;;;;;;;5.05;1.65;;;15.80;99.90;;;;;;5040733;28;20517;-34
2023/07/30 01:00:09;;;;;;;6.35;1.88;;;15.80;99.90;;;;;;5042896;28;20545;-33
2023/07/30 01:02:37;;;;;;;10.93;1.75;;;15.70;99.90;;;;;;5043493;28;20517;-34
2023/07/30 01:05:03;;;;;;;6.55;1.80;;;15.70;99.90;;;;;;5038593;28;20049;-34
2023/07/30 01:07:33;;;;;;;6.05;1.65;;;15.60;99.90;;;;;;5047991;28;20051;-34
2023/07/30 01:10:00;;;;;;;8.70;2.05;;;15.60;99.90;;;;;;5040145;28;20110;-33
2023/07/30 01:12:27;;;;;;;6.45;1.48;;;15.60;99.90;;;;;;5038478;28;20061;-34
2023/07/30 01:14:55;;;;;;;8.40;2.00;;;15.60;99.90;;;;;;5044744;28;20057;-34
2023/07/30 01:17:22;;;;;;;4.80;1.40;;;15.50;99.90;;;;;;5041382;28;20417;-34
2023/07/30 01:19:49;;;;;;;7.18;1.98;;;15.50;99.90;;;;;;5045570;28;20044;-34
2023/07/30 01:22:15;;;;;;;5.85;1.67;;;15.50;99.90;;;;;;5038596;28;20057;-34
2023/07/30 01:24:41;;;;;;;6.47;1.65;;;15.40;99.90;;;;;;5041072;28;20534;-34
2023/07/30 01:27:11;;;;;;;7.95;1.50;;;15.40;99.90;;;;;;5045945;28;20048;-34
2023/07/30 01:29:55;;;;;;;5.60;1.70;;;15.40;99.90;;;;;;5045535;28;20041;-34
2023/07/30 01:32:27;;;;;;;5.65;1.67;;;15.40;99.90;;;;;;5040199;28;20075;-34
2023/07/30 01:34:55;;;;;;;8.32;1.80;;;15.40;99.90;;;;;;5044839;28;20041;-34
2023/07/30 01:37:22;;;;;;;9.45;1.90;;;15.40;99.90;;;;;;5043915;28;20069;-34
2023/07/30 01:39:49;;;;;;;4.75;1.40;;;15.30;99.90;;;;;;5044561;28;20052;-34
2023/07/30 01:42:15;;;;;;;8.93;1.50;;;15.30;99.90;;;;;;5039168;28;20141;-34
2023/07/30 01:44:41;;;;;;;7.95;1.30;;;15.30;99.90;;;;;;5038908;28;20064;-35
2023/07/30 01:47:07;;;;;;;6.00;1.20;;;15.20;99.90;;;;;;5044135;28;20049;-35
2023/07/30 01:49:33;;;;;;;7.15;1.52;;;15.20;99.90;;;;;;5034564;28;20037;-35
2023/07/30 01:51:58;;;;;;;8.32;1.48;;;15.20;99.90;;;;;;5042253;28;20080;-35
2023/07/30 01:54:24;;;;;;;4.53;1.15;;;15.10;99.90;;;;;;5041935;28;20094;-35
2023/07/30 01:56:50;;;;;;;4.18;1.40;;;15.20;99.90;;;;;;5042424;28;20048;-35
2023/07/30 01:59:16;;;;;;;6.20;1.13;;;15.20;99.90;;;;;;5037121;28;20079;-35
2023/07/30 02:01:43;;;;;;;9.90;1.60;;;15.20;99.90;;;;;;5041122;28;20191;-34
2023/07/30 02:04:08;;;;;;;5.80;1.58;;;15.20;99.90;;;;;;5042667;28;20052;-34
2023/07/30 02:06:34;;;;;;;8.25;1.58;;;15.20;99.90;;;;;;5037633;28;20049;-34
2023/07/30 02:09:00;;;;;;;4.65;1.35;;;15.20;99.90;;;;;;5047292;28;20048;-34
2023/07/30 02:11:25;;;;;;;6.22;1.40;;;15.20;99.90;;;;;;5038445;28;20053;-35
2023/07/30 02:13:51;;;;;;;8.13;1.15;;;15.20;99.90;;;;;;5039299;28;20427;-35
2023/07/30 02:16:17;;;;;;;5.88;1.33;;;15.20;99.90;;;;;;5038497;28;20065;-35
2023/07/30 02:18:42;;;;;;;4.13;1.00;;;15.20;99.90;;;;;;5037972;28;20057;-34
2023/07/30 02:21:08;;;;;;;7.75;1.50;;;15.20;99.90;;;;;;5024599;28;20076;-34
2023/07/30 02:23:33;;;;;;;8.07;1.42;;;15.20;99.90;;;;;;5037556;28;20045;-35
2023/07/30 02:25:59;;;;;;;6.60;1.40;;;15.20;99.90;;;;;;5045301;28;20045;-35
2023/07/30 02:28:25;;;;;;;3.45;1.00;;;15.20;99.90;;;;;;5036977;28;20072;-35
2023/07/30 02:30:51;;;;;;;9.52;1.42;;;15.10;99.90;;;;;;5036064;28;20134;-34
2023/07/30 02:33:16;;;;;;;7.45;1.25;;;15.20;99.90;;;;;;5037882;28;20057;-35
2023/07/30 02:35:43;;;;;;;8.63;1.48;;;15.10;99.90;;;;;;5036251;28;20057;-35
2023/07/30 02:38:09;;;;;;;5.65;1.80;;;15.10;99.90;;;;;;5040193;28;20049;-34
2023/07/30 02:40:35;;;;;;;7.75;1.33;;;15.10;99.90;;;;;;5036341;28;20409;-34
2023/07/30 02:43:00;;;;;;;7.38;1.27;;;15.10;99.90;;;;;;5044818;28;20051;-34
2023/07/30 02:45:26;;;;;;;3.50;0.90;;;15.10;99.90;;;;;;5038793;28;20045;-35
2023/07/30 02:47:52;;;;;;;5.10;1.00;;;15.10;99.90;;;;;;5042362;28;20477;-34
2023/07/30 02:50:17;;;;;;;6.28;1.70;;;15.10;99.90;;;;;;5039635;28;20135;-35
2023/07/30 02:52:43;;;;;;;5.43;1.40;;;15.10;99.90;;;;;;5035411;28;20110;-35
2023/07/30 02:55:09;;;;;;;6.93;1.20;;;15.10;99.90;;;;;;5040721;28;20049;-35
2023/07/30 02:57:35;;;;;;;9.88;1.38;;;15.10;99.90;;;;;;5039735;28;20053;-35
2023/07/30 03:00:01;;;;;;;4.55;0.95;;;15.10;99.90;;;;;;5040877;28;20545;-35
2023/07/30 03:02:26;;;;;;;5.80;1.23;;;15.10;99.90;;;;;;5033962;28;20044;-35
2023/07/30 03:04:52;;;;;;;6.90;1.45;;;15.20;99.90;;;;;;5037581;28;20037;-35
2023/07/30 03:07:19;;;;;;;6.38;1.27;;;15.10;99.90;;;;;;5021562;28;20041;-34
2023/07/30 03:09:45;;;;;;;6.88;1.40;;;15.20;99.90;;;;;;5039698;28;20045;-35
2023/07/30 03:12:11;;;;;;;5.40;1.20;;;15.10;99.90;;;;;;5040186;28;20560;-35
2023/07/30 03:14:37;;;;;;;4.30;1.42;;;15.10;99.90;;;;;;5042674;28;20629;-35
2023/07/30 03:17:04;;;;;;;6.82;1.48;;;15.10;99.90;;;;;;5043085;28;20094;-35
2023/07/30 03:19:30;;;;;;;7.28;1.65;;;15.10;99.90;;;;;;5040569;28;20049;-35
2023/07/30 03:21:56;;;;;;;4.70;1.52;;;15.10;99.90;;;;;;5035662;28;20055;-34
2023/07/30 03:24:21;;;;;;;8.20;1.80;;;15.00;99.90;;;;;;5042194;28;20521;-35
2023/07/30 03:26:47;;;;;;;6.18;1.70;;;15.00;99.90;;;;;;5038808;28;20076;-35
2023/07/30 03:29:13;;;;;;;5.28;1.65;;;15.00;99.90;;;;;;5038165;28;20064;-35
2023/07/30 03:31:38;;;;;;;4.60;1.38;;;15.00;99.90;;;;;;5040688;28;20084;-35
2023/07/30 03:34:04;;;;;;;6.70;1.52;;;15.00;99.90;;;;;;5042577;28;20057;-35
2023/07/30 03:36:30;;;;;;;5.20;1.42;;;15.00;99.90;;;;;;5038110;28;20048;-35
2023/07/30 03:38:55;;;;;;;6.47;1.35;;;15.00;99.90;;;;;;5038280;28;20065;-34
2023/07/30 03:41:21;;;;;;;7.05;1.38;;;14.90;99.90;;;;;;5021615;28;20053;-35
2023/07/30 03:43:47;;;;;;;6.68;1.38;;;14.90;99.90;;;;;;5041227;28;20490;-35
2023/07/30 03:46:13;;;;;;;5.88;1.20;;;14.90;99.90;;;;;;5042741;28;20044;-35
2023/07/30 03:48:39;;;;;;;7.55;1.42;;;14.90;99.90;;;;;;5043412;28;20056;-35
2023/07/30 03:51:04;;;;;;;7.15;1.38;;;14.90;99.90;;;;;;5038416;28;20065;-35
2023/07/30 03:53:30;;;;;;;6.25;1.13;;;14.80;99.90;;;;;;5042912;28;20564;-35
2023/07/30 03:55:56;;;;;;;4.53;1.42;;;14.80;99.90;;;;;;5046779;28;20060;-35
2023/07/30 03:58:21;;;;;;;3.80;1.40;;;14.80;99.90;;;;;;5043701;28;20380;-35
2023/07/30 04:00:47;;;;;;;11.50;1.48;;;14.80;99.90;;;;;;5038779;28;20389;-35
2023/07/30 04:03:12;;;;;;;8.52;1.42;;;14.80;99.90;;;;;;5034316;28;20418;-35
2023/07/30 04:05:38;;;;;;;4.65;1.08;;;14.80;99.90;;;;;;5039589;28;20053;-35
2023/07/30 04:08:04;;;;;;;6.38;1.55;;;14.80;99.90;;;;;;5041184;28;20053;-35
2023/07/30 04:10:29;;;;;;;5.13;1.30;;;14.80;99.90;;;;;;5039044;28;20549;-35
2023/07/30 04:12:55;;;;;;;7.57;1.90;;;14.80;99.90;;;;;;5043692;28;20111;-35
2023/07/30 04:15:21;;;;;;;5.95;1.35;;;14.80;99.90;;;;;;5045449;28;20415;-35
2023/07/30 04:17:46;;;;;;;9.00;2.17;;;14.80;99.90;;;;;;5046615;28;21252;-35
2023/07/30 04:20:12;;;;;;;7.38;1.65;;;14.80;99.90;;;;;;5043163;28;20102;-34
2023/07/30 04:22:41;;;;;;;4.38;1.30;;;14.80;99.90;;;;;;5038085;28;20041;-35
2023/07/30 04:25:07;;;;;;;9.65;1.55;;;14.80;99.90;;;;;;5046105;28;20102;-35
2023/07/30 04:27:33;;;;;;;8.07;1.58;;;14.80;99.90;;;;;;5021440;28;20060;-35
2023/07/30 04:29:59;;;;;;;5.13;1.33;;;14.80;99.90;;;;;;5042417;28;20049;-35
2023/07/30 04:32:24;;;;;;;7.13;1.90;;;14.90;99.90;;;;;;5041207;28;20045;-35
2023/07/30 04:34:50;;;;;;;5.93;1.75;;;14.90;99.90;;;;;;5037268;28;20041;-35
2023/07/30 04:37:16;;;;;;;10.10;1.80;;;14.90;99.90;;;;;;5041632;28;20107;-35
2023/07/30 04:39:41;;;;;;;8.55;1.67;;;15.00;99.90;;;;;;5038932;28;20134;-36
2023/07/30 04:42:07;;;;;;;9.18;1.58;;;15.10;99.90;;;;;;5042006;28;20040;-35
2023/07/30 04:44:33;;;;;;;9.50;3.35;;;15.10;99.90;;;;;;5039241;28;20138;-35
2023/07/30 04:46:58;;;;;;;10.57;2.08;;;15.10;99.90;;;;;;5042525;28;20102;-34
2023/07/30 04:49:24;;;;;;;6.63;1.70;;;15.20;99.90;;;;;;5044077;28;20068;-35
2023/07/30 04:51:49;;;;;;;9.32;2.05;;;15.20;99.90;;;;;;5042484;28;20053;-35
2023/07/30 04:54:15;;;;;;;7.80;2.67;;;15.20;99.90;;;;;;5008242;28;20144;-35
2023/07/30 04:56:41;;;;;;;8.60;2.08;;;15.30;99.90;;;;;;5042116;28;20084;-35
2023/07/30 04:59:07;;;;;;;6.10;1.70;;;15.20;99.90;;;;;;5043540;28;20049;-35
2023/07/30 05:01:32;;;;;;;10.68;1.88;;;15.30;99.90;;;;;;5043775;28;20053;-35
2023/07/30 05:03:58;;;;;;;11.65;2.53;;;15.30;99.90;;;;;;5038342;28;20461;-35
2023/07/30 05:06:24;;;;;;;11.13;2.75;;;15.40;99.90;;;;;;5043276;28;20379;-35
2023/07/30 05:08:49;;;;;;;8.70;1.77;;;15.40;99.90;;;;;;5038926;28;20049;-35
2023/07/30 05:11:15;;;;;;;8.02;2.08;;;15.40;99.90;;;;;;5039521;28;20110;-35
2023/07/30 05:13:41;;;;;;;12.77;1.90;;;15.50;99.90;;;;;;5038466;28;20053;-35
2023/07/30 05:16:06;;;;;;;11.75;1.80;;;15.50;99.90;;;;;;5043072;28;20048;-35
2023/07/30 05:18:32;;;;;;;7.20;1.88;;;15.50;99.90;;;;;;5041307;28;20095;-35
2023/07/30 05:20:58;;;;;;;10.50;2.13;;;15.50;99.90;;;;;;5040541;28;20549;-35
2023/07/30 05:23:24;;;;;;;12.77;2.67;;;15.60;99.90;;;;;;5037704;28;20048;-35
2023/07/30 05:25:49;;;;;;;10.60;2.00;;;15.60;99.90;;;;;;5038395;28;20044;-34
2023/07/30 05:28:15;;;;;;;7.97;2.22;;;15.70;99.90;;;;;;5038846;28;20359;-35
2023/07/30 05:30:41;;;;;;;13.30;1.98;;;15.70;99.90;;;;;;5040694;28;20066;-35
2023/07/30 05:33:06;;;;;;;10.38;2.15;;;15.70;99.90;;;;;;5036025;28;20063;-35
2023/07/30 05:35:32;;;;;;;6.50;1.73;;;15.70;99.90;;;;;;5038910;28;20042;-35
2023/07/30 05:37:58;;;;;;;14.52;2.67;;;15.70;99.90;;;;;;5038135;28;20057;-35
2023/07/30 05:40:24;;;;;;;12.15;3.03;;;15.80;99.90;;;;;;5041685;28;20064;-35
2023/07/30 05:42:49;;;;;;;10.60;2.58;;;15.80;99.90;;;;;;5038408;28;20065;-39
2023/07/30 05:45:15;;;;;;;8.93;2.10;;;15.80;99.90;;;;;;5038587;28;20402;-35
2023/07/30 05:47:41;;;;;;;8.70;2.50;;;15.80;99.90;;;;;;5040294;28;20087;-35
2023/07/30 05:50:07;;;;;;;10.82;2.58;;;15.90;99.90;;;;;;5042013;28;20103;-35
2023/07/30 05:52:33;;;;;;;10.95;2.38;;;15.90;99.90;;;;;;5036101;28;20064;-35
2023/07/30 05:54:59;;;;;;;12.55;2.75;;;15.90;99.90;;;;;;5023889;28;20380;-35
2023/07/30 05:57:25;;;;;;;10.27;2.13;;;15.90;99.90;;;;;;5042487;28;20037;-35
2023/07/30 05:59:50;;;;;;;15.07;2.88;;;16.00;99.90;;;;;;5041025;28;20049;-35
2023/07/30 06:02:17;;;;;;;8.23;2.10;;;16.00;99.90;;;;;;5041717;28;20398;-35
2023/07/30 06:04:43;;;;;;;11.55;2.13;;;16.00;99.90;;;;;;5040035;28;20463;-35
2023/07/30 06:07:09;;;;;;;11.85;2.90;;;16.00;99.90;;;;;;5043129;28;20482;-35
2023/07/30 06:09:34;;;;;;;9.80;2.22;;;16.10;99.90;;;;;;5040190;28;20107;-35
2023/07/30 06:12:00;;;;;;;15.25;2.47;;;16.10;99.90;;;;;;5040269;28;20049;-35
2023/07/30 06:14:26;;;;;;;10.93;2.75;;;16.20;99.90;;;;;;5046164;28;20143;-35
2023/07/30 06:16:53;;;;;;;17.05;3.85;;;16.20;99.90;;;;;;5037827;28;20391;-35
2023/07/30 06:19:19;;;;;;;15.40;2.45;;;16.30;99.90;;;;;;5042165;28;20048;-35
2023/07/30 06:21:45;;;;;;;7.15;2.60;;;16.30;99.90;;;;;;5024921;28;20049;-35
2023/07/30 06:24:11;;;;;;;11.10;2.55;;;16.40;99.90;;;;;;5040852;28;20517;-35
2023/07/30 06:26:36;;;;;;;11.43;2.13;;;16.50;99.90;;;;;;5042869;28;20052;-35
2023/07/30 06:29:02;;;;;;;9.02;2.10;;;16.50;99.90;;;;;;5038945;28;20147;-35
2023/07/30 06:31:28;;;;;;;11.30;2.47;;;16.50;99.90;;;;;;5043152;28;20053;-35
2023/07/30 06:33:54;;;;;;;9.13;2.60;;;16.60;99.90;;;;;;5040337;28;20056;-35
2023/07/30 06:36:19;;;;;;;12.15;2.20;;;16.70;99.90;;;;;;5039594;28;20057;-34
2023/07/30 06:38:45;;;;;;;9.52;2.17;;;16.70;99.90;;;;;;5040946;28;20452;-35
2023/07/30 06:41:10;;;;;;;15.13;2.90;;;16.80;99.90;;;;;;5041387;28;20469;-35
2023/07/30 06:43:36;;;;;;;11.60;2.33;;;16.80;99.90;;;;;;5042149;28;20463;-35
2023/07/30 06:46:02;;;;;;;12.80;3.03;;;16.90;99.90;;;;;;5043809;28;20092;-35
2023/07/30 06:48:27;;;;;;;13.07;2.40;;;16.90;99.90;;;;;;5036483;28;20140;-35
2023/07/30 06:50:53;;;;;;;12.15;2.42;;;17.00;99.90;;;;;;5041508;28;20402;-35
2023/07/30 06:53:19;;;;;;;12.02;2.65;;;17.10;99.90;;;;;;5044139;28;20052;-35
2023/07/30 06:55:45;;;;;;;17.05;4.40;;;17.20;99.90;;;;;;5034418;28;20448;-35
2023/07/30 06:58:11;;;;;;;11.15;2.42;;;17.20;99.90;;;;;;5043448;28;20600;-35
2023/07/30 07:00:37;;;;;;;12.05;2.47;;;17.30;99.90;;;;;;5036363;28;20085;-35
2023/07/30 07:03:03;;;;;;;11.43;3.05;;;17.30;99.90;;;;;;5040121;28;20129;-35
2023/07/30 07:05:29;;;;;;;17.30;3.30;;;17.30;99.90;;;;;;5038629;28;20067;-35
2023/07/30 07:07:55;;;;;;;12.57;2.33;;;17.30;99.90;;;;;;5040173;28;20514;-35
2023/07/30 07:10:20;;;;;;;11.52;2.45;;;17.40;99.90;;;;;;5032861;28;20468;-35
2023/07/30 07:12:47;;;;;;;10.13;2.60;;;17.40;99.90;;;;;;5037956;28;20057;-36
2023/07/30 07:15:13;;;;;;;12.25;2.90;;;17.40;99.90;;;;;;5036846;28;20121;-35
2023/07/30 07:17:39;;;;;;;10.73;2.45;;;17.50;99.90;;;;;;5043397;28;20143;-35
2023/07/30 07:20:06;;;;;;;10.68;3.05;;;17.50;99.90;;;;;;5038457;28;20490;-35
2023/07/30 07:22:32;;;;;;;12.50;3.10;;;17.50;99.90;;;;;;5041843;28;20491;-35
2023/07/30 07:24:58;;;;;;;12.48;3.20;;;17.50;99.90;;;;;;5045805;28;20530;-35
2023/07/30 07:27:24;;;;;;;23.50;3.88;;;17.50;99.90;;;;;;5042307;28;20049;-35
2023/07/30 07:29:51;;;;;;;12.73;2.90;;;17.60;99.90;;;;;;5045554;28;20136;-35
2023/07/30 07:32:17;;;;;;;10.95;3.13;;;17.50;99.90;;;;;;5041866;28;20068;-35
2023/07/30 07:34:47;;;;;;;14.93;3.03;;;17.60;99.90;;;;;;5047370;28;20065;-35
2023/07/30 07:37:15;;;;;;;9.43;2.05;;;17.60;99.90;;;;;;5046969;28;20123;-35
2023/07/30 07:39:41;;;;;;;11.95;2.72;;;17.70;99.90;;;;;;5041847;28;20041;-35
2023/07/30 07:42:07;;;;;;;11.57;2.80;;;17.70;99.90;;;;;;5026817;28;20045;-35
2023/07/30 07:44:33;;;;;;;11.98;2.55;;;17.90;99.90;;;;;;5038414;28;20041;-35
2023/07/30 07:46:58;;;;;;;10.20;2.95;;;17.90;99.90;;;;;;5044616;28;20049;-35
2023/07/30 07:49:24;;;;;;;12.85;3.40;;;18.00;99.90;;;;;;5043460;28;20045;-35
2023/07/30 07:51:49;;;;;;;11.55;2.47;;;18.20;99.90;;;;;;5046295;28;20124;-35
2023/07/30 07:54:15;;;;;;;11.15;2.90;;;18.30;99.90;;;;;;5038300;28;20075;-35
2023/07/30 07:56:41;;;;;;;10.30;2.10;;;18.30;99.90;;;;;;5046424;28;20420;-38
2023/07/30 07:59:07;;;;;;;9.50;2.83;;;18.50;99.90;;;;;;5041317;28;20053;-41
2023/07/30 08:01:32;;;;;;;13.85;2.53;;;18.60;99.90;;;;;;5043952;28;20476;-35
2023/07/30 08:03:58;;;;;;;11.27;3.40;;;18.80;99.90;;;;;;5042811;28;20078;-55
2023/07/30 08:06:24;;;;;;;12.18;2.60;;;18.90;99.90;;;;;;5044447;28;20044;-35
2023/07/30 08:08:50;;;;;;;9.63;2.63;;;19.00;99.90;;;;;;5037239;28;20056;-35
2023/07/30 08:11:15;;;;;;;9.82;2.70;;;19.10;99.90;;;;;;5035026;28;20045;-35
2023/07/30 08:13:41;;;;;;;8.55;3.50;;;19.20;99.90;;;;;;5041151;28;20057;-35
2023/07/30 08:16:07;;;;;;;11.80;4.53;;;19.30;99.90;;;;;;5034736;28;20059;-35
2023/07/30 08:18:33;;;;;;;12.82;2.95;;;19.20;99.90;;;;;;5047325;28;20049;-35
2023/07/30 08:21:00;;;;;;;8.75;2.90;;;19.10;99.90;;;;;;5042554;28;20052;-35
2023/07/30 08:23:26;;;;;;;13.98;3.58;;;19.00;99.90;;;;;;5038312;28;20057;-35
2023/07/30 08:25:51;;;;;;;14.07;3.40;;;19.00;99.90;;;;;;5040531;28;20589;-35
2023/07/30 08:28:17;;;;;;;10.65;4.10;;;19.00;99.90;;;;;;5039641;28;20414;-35
2023/07/30 08:30:43;;;;;;;12.77;3.33;;;19.00;99.90;;;;;;5037315;28;20057;-35
2023/07/30 08:33:08;;;;;;;8.35;3.17;;;19.00;99.90;;;;;;5040008;28;20057;-35
2023/07/30 08:35:34;;;;;;;8.30;2.72;;;18.90;99.90;;;;;;5039601;28;22959;-35
2023/07/30 08:37:59;;;;;;;12.95;3.10;;;18.80;99.90;;;;;;5042250;28;20053;-35
2023/07/30 08:40:25;;;;;;;8.60;2.92;;;18.80;99.90;;;;;;5039871;28;20053;-35
2023/07/30 08:42:52;;;;;;;8.50;2.67;;;19.00;99.90;;;;;;5038196;28;20052;-35
2023/07/30 08:45:18;;;;;;;11.15;2.75;;;19.10;99.90;;;;;;5040624;28;20045;-35
2023/07/30 08:47:45;;;;;;;11.57;2.88;;;19.20;99.90;;;;;;5038143;28;20102;-35
2023/07/30 08:50:11;;;;;;;9.50;2.40;;;19.10;99.90;;;;;;5041772;28;20060;-35
2023/07/30 08:52:37;;;;;;;9.13;2.17;;;19.10;99.90;;;;;;5037754;28;20057;-35
2023/07/30 08:55:06;;;;;;;10.27;2.13;;;19.00;99.90;;;;;;5037882;28;20099;-35
2023/07/30 08:57:33;;;;;;;10.93;2.45;;;19.10;99.90;;;;;;5038320;28;20041;-35
2023/07/30 09:00:05;;;;;;;7.70;1.98;;;19.10;99.90;;;;;;5040655;28;20049;-35
2023/07/30 09:02:34;;;;;;;;;;;19.10;99.90;;;;;;5042202;28;20053;-35
2023/07/30 09:05:01;;;;;;;10.05;2.60;;;19.00;99.90;;;;;;5039861;28;19916;-35
2023/07/30 09:07:27;;;;;;;11.00;2.83;;;18.90;99.90;;;;;;5043317;28;20079;-48
2023/07/30 09:09:53;;;;;;;8.25;2.80;;;18.90;99.90;;;;;;5040207;28;20068;-34
2023/07/30 09:12:19;;;;;;;8.70;2.35;;;18.90;99.90;;;;;;5042500;28;20592;-35
2023/07/30 09:14:51;;;;;;;8.88;2.25;;;19.00;99.90;;;;;;5041921;28;20067;-35
2023/07/30 09:17:20;;;;;;;9.40;2.33;;;19.10;99.90;;;;;;5040165;28;20502;-35
2023/07/30 09:19:50;;;;;;;11.18;2.72;;;19.10;99.90;;;;;;5041299;28;20060;-35
2023/07/30 09:22:29;;;;;;;6.20;2.28;;;19.00;99.90;;;;;;5036986;28;20413;-35
2023/07/30 09:24:56;;;;;;;10.73;2.42;;;18.90;99.90;;;;;;5038741;28;20049;-34
2023/07/30 09:27:26;;;;;;;10.85;2.38;;;18.80;99.90;;;;;;5040880;28;20423;-35
2023/07/30 09:29:53;;;;;;;8.85;2.20;;;18.60;99.90;;;;;;5037501;28;20144;-35
2023/07/30 09:32:19;;;;;;;9.13;2.08;;;18.40;99.90;;;;;;5039639;28;20048;-35
2023/07/30 09:34:46;;;;;;;7.68;1.75;;;18.30;99.90;;;;;;5039231;28;20052;-35
2023/07/30 09:37:13;;;;;;;4.05;0.68;;;18.30;99.90;;;;;;5039434;28;20040;-35
2023/07/30 09:39:38;;;;;;;8.93;0.90;;;18.00;99.90;;;;;;5039607;28;20075;-35
2023/07/30 09:42:05;;;;;;;6.35;1.52;;;17.70;99.90;;;;;;5038435;28;20470;-35
2023/07/30 09:44:33;;;;;;;9.25;1.63;;;17.30;99.90;;;;;;5040348;28;20076;-36
2023/07/30 09:47:04;;;;;;;5.20;1.63;;;17.10;99.90;;;;;;5040239;28;20048;-36
2023/07/30 09:49:31;;;;;;;10.30;1.20;;;17.00;99.90;;;;;;5038568;28;20049;-36
2023/07/30 09:51:58;;;;;;;6.68;1.17;;;16.90;99.90;;;;;;5040590;28;20497;-36
2023/07/30 09:54:23;;;;;;;6.28;1.20;;;16.90;99.90;;;;;;5037195;28;20528;-36
2023/07/30 09:56:49;;;;;;;6.07;0.93;;;16.90;99.90;;;;;;5037641;28;20053;-36
2023/07/30 09:59:15;;;;;;;7.70;1.10;;;16.90;99.90;;;;;;5043215;28;20049;-36
2023/07/30 10:01:46;;;;;;;4.53;1.00;;;16.90;99.90;;;;;;5035828;28;20056;-35
2023/07/30 10:04:12;;;;;;;6.07;1.10;;;17.10;99.90;;;;;;5033952;28;20488;-35
2023/07/30 10:06:45;;;;;;;6.60;1.58;;;17.10;99.90;;;;;;5041151;28;20478;-36
2023/07/30 10:09:13;;;;;;;7.10;0.80;;;17.20;99.90;;;;;;5041633;28;20044;-36
2023/07/30 10:11:40;;;;;;;5.25;0.95;;;17.30;99.90;;;;;;5041250;28;21427;-36
2023/07/30 10:14:06;;;;;;;3.65;0.60;;;17.50;99.90;;;;;;5036166;28;20068;-36
2023/07/30 10:16:31;;;;;;;6.63;0.73;;;17.70;99.90;;;;;;5036735;28;20053;-36
2023/07/30 10:18:58;;;;;;;7.10;0.90;;;17.90;99.90;;;;;;5040725;28;20178;-36
2023/07/30 10:21:25;;;;;;;5.07;0.68;;;18.20;99.90;;;;;;5041985;28;20060;-36
2023/07/30 10:24:03;;;;;;;4.40;1.13;;;18.40;99.90;;;;;;5040788;28;20337;-36
2023/07/30 10:26:35;;;;;;;7.85;0.98;;;18.70;99.90;;;;;;5036947;28;20053;-36
2023/07/30 10:29:11;;;;;;;;;;;19.00;99.90;;;;;;5035237;28;20063;-36
2023/07/30 10:31:41;;;;;;;5.07;1.25;;;19.20;99.90;;;;;;5035744;28;19917;-36
2023/07/30 10:34:09;;;;;;;6.63;1.17;;;19.40;99.90;;;;;;5036787;28;20153;-42
2023/07/30 10:36:48;;;;;;;6.10;0.80;;;19.40;99.90;;;;;;5036543;28;20057;-34
2023/07/30 10:39:16;;;;;;;4.80;0.88;;;19.50;99.90;;;;;;5032976;28;20502;-34
2023/07/30 10:41:56;;;;;;;4.32;1.05;;;19.70;99.90;;;;;;5038108;28;20178;-35
2023/07/30 10:44:23;;;;;;;6.03;0.85;;;19.80;99.90;;;;;;5037784;28;20060;-35
2023/07/30 10:46:49;;;;;;;3.15;0.70;;;19.90;99.90;;;;;;5035603;28;20064;-35
2023/07/30 10:49:15;;;;;;;5.70;0.50;;;20.00;99.90;;;;;;5034241;28;20053;-40
2023/07/30 10:51:40;;;;;;;12.18;0.85;;;20.10;99.90;;;;;;5035099;28;20056;-35
2023/07/30 10:54:09;;;;;;;3.00;0.70;;;20.20;99.90;;;;;;5038390;28;20125;-34
2023/07/30 10:56:40;;;;;;;7.68;1.58;;;20.40;99.90;;;;;;5033232;28;20065;-34
2023/07/30 10:59:07;;;;;;;2.80;0.50;;;20.60;99.90;;;;;;5039690;28;20049;-35
2023/07/30 11:01:38;;;;;;;4.53;0.75;;;20.60;99.90;;;;;;5041881;28;20055;-35
2023/07/30 11:04:18;;;;;;;2.80;0.52;;;20.70;99.90;;;;;;5039345;28;20614;-35
2023/07/30 11:06:48;;;;;;;9.57;0.88;;;20.60;99.90;;;;;;5041367;28;20048;-35
2023/07/30 11:09:24;;;;;;;3.78;0.70;;;20.40;99.90;;;;;;5045899;28;20294;-35
2023/07/30 11:11:52;;;;;;;4.20;0.85;;;20.50;99.90;;;;;;5043227;28;20401;-35
2023/07/30 11:14:25;;;;;;;5.38;0.80;;;20.50;99.90;;;;;;5041458;28;20060;-35
2023/07/30 11:16:58;;;;;;;6.80;0.68;;;20.50;99.90;;;;;;5043185;28;20494;-35
2023/07/30 11:19:24;;;;;;;7.85;1.10;;;20.30;99.90;;;;;;5044695;28;20052;-35
2023/07/30 11:21:53;;;;;;;6.03;0.63;;;20.30;99.90;;;;;;5045928;28;20056;-35
2023/07/30 11:24:19;;;;;;;5.18;1.02;;;20.50;99.90;;;;;;5044369;28;20067;-35
2023/07/30 11:26:45;;;;;;;3.85;0.90;;;20.60;99.90;;;;;;5044354;28;20045;-35
2023/07/30 11:29:19;;;;;;;6.53;0.82;;;20.80;99.90;;;;;;5040205;28;20053;-47
2023/07/30 11:31:46;;;;;;;6.55;2.60;;;20.90;99.90;;;;;;5043854;28;20053;-35
2023/07/30 11:34:13;;;;;;;4.40;0.47;;;21.10;99.90;;;;;;5044587;28;20049;-35
2023/07/30 11:36:41;;;;;;;6.40;0.63;;;21.30;99.90;;;;;;5042709;28;20668;-35
2023/07/30 11:39:08;;;;;;;2.97;0.70;;;21.40;99.90;;;;;;5039227;28;20049;-42
2023/07/30 11:41:35;;;;;;;4.45;0.75;;;21.30;99.90;;;;;;5040799;28;20144;-35
2023/07/30 11:44:01;;;;;;;4.50;0.85;;;21.30;99.90;;;;;;5042993;28;20413;-35
2023/07/30 11:46:26;;;;;;;3.80;0.80;;;21.20;99.90;;;;;;5044663;28;20049;-35
2023/07/30 11:49:09;;;;;;;4.72;0.60;;;21.10;99.90;;;;;;5046822;28;20052;-35
2023/07/30 11:51:35;;;;;;;4.97;0.68;;;21.10;99.90;;;;;;5048232;28;20565;-35
2023/07/30 11:54:02;;;;;;;4.90;0.70;;;21.00;99.90;;;;;;5037426;28;20110;-35
2023/07/30 11:56:28;;;;;;;5.50;0.90;;;20.80;99.90;;;;;;5038068;28;20506;-35
2023/07/30 11:58:58;;;;;;;5.88;0.55;;;20.50;99.90;;;;;;5044010;28;20490;-35
2023/07/30 12:01:26;;;;;;;7.40;0.73;;;20.40;99.90;;;;;;5046803;28;20080;-34
2023/07/30 12:03:55;;;;;;;4.53;0.55;;;20.40;99.90;;;;;;5037150;28;20418;-35
2023/07/30 12:06:21;;;;;;;4.53;0.60;;;20.50;99.90;;;;;;5040535;28;20063;-35
2023/07/30 12:08:49;;;;;;;5.03;0.70;;;20.60;99.90;;;;;;5041591;28;20052;-35
2023/07/30 12:11:17;;;;;;;4.68;0.57;;;20.70;99.90;;;;;;5047178;28;20041;-42
2023/07/30 12:13:47;;;;;;;2.83;0.60;;;20.80;99.90;;;;;;5044821;28;20049;-34
2023/07/30 12:16:14;;;;;;;4.40;0.70;;;20.80;99.90;;;;;;5041060;28;20049;-34
2023/07/30 12:18:40;;;;;;;4.10;0.70;;;20.90;99.90;;;;;;5040572;28;20049;-34
2023/07/30 12:21:11;;;;;;;3.45;0.60;;;20.80;99.90;;;;;;5044888;28;20056;-41
2023/07/30 12:23:38;;;;;;;5.60;0.73;;;20.80;99.90;;;;;;5038645;28;20049;-34
2023/07/30 12:26:04;;;;;;;2.35;0.50;;;20.90;99.90;;;;;;5040700;28;20064;-34
2023/07/30 12:28:34;;;;;;;6.57;0.80;;;20.80;99.90;;;;;;5044232;28;20059;-34
2023/07/30 12:31:00;;;;;;;3.45;0.52;;;20.50;99.90;;;;;;5040541;28;20512;-34
2023/07/30 12:33:26;;;;;;;3.03;0.50;;;20.40;99.90;;;;;;5041921;28;20565;-34
2023/07/30 12:35:53;;;;;;;2.50;0.50;;;20.20;99.90;;;;;;5043265;28;20140;-34
2023/07/30 12:38:18;;;;;;;2.08;0.60;;;20.00;99.90;;;;;;5040113;28;20505;-34
2023/07/30 12:40:44;;;;;;;3.15;0.68;;;19.60;99.90;;;;;;5042792;28;20048;-34
2023/07/30 12:43:10;;;;;;;5.50;0.93;;;19.40;99.90;;;;;;5041677;28;20485;-34